• Join FlightAware (Why Join?)
  • Login
  • US Flag 
11:49AM EST


 

Airport Tracker/Info


-or-


 

Live Flight TrackerFlight Track Log ✈ ASQ5102 ✈ 09-May-2013 ✈ KATL - KMGM

Flight Track Log - Related Links

Times and Time Zones

All times are in EDT time to prevent confusion due to time zone crossing. See the ASQ5102 flight status page for this flight to view local times or setup timezone preferences in your user account.

Time Position Orientation Groundspeed Altitude Reporting Facility
EDT Latitude Longitude Course Direction KTS MPH feet Rate Location/Type
01:09PM 33.6500 -84.4500 270° West 158 182 2,200  Level Atlanta TRACON
01:10PM 33.6500 -84.5167 270° West 218 251 4,300 2,220 Climbing Atlanta TRACON
01:11PM 33.6667 -84.6167 281° West 267 307 6,900 2,460 Climbing Atlanta TRACON
01:13PM 33.6478 -84.8000 263° West 281 323 12,500 2,400 Climbing Atlanta Center
01:14PM 33.6119 -84.8894 244° Southwest 296 341 14,700 1,800 Climbing Atlanta Center
01:15PM 33.8001 -84.3857 270° West  Level FlightAware Approximate
01:15PM 33.5714 -84.9836 243° Southwest 302 348 16,200  Level Atlanta Center
01:16PM 33.5311 -85.0831 244° Southwest 315 362 17,700 900 Climbing Atlanta Center
01:17PM 33.4883 -85.1872 244° Southwest 329 379 18,000 120 Climbing Atlanta Center
01:18PM 33.4581 -85.3086 253° West 369 425 18,000  Level Atlanta Center
01:19PM 33.4358 -85.4228 257° West 387 445 18,000  Level Atlanta Center
01:20PM 33.4072 -85.5592 256° West 409 471 18,000  Level Atlanta Center
01:21PM 33.3783 -85.6906 255° West 415 478 18,000  Level Atlanta Center
01:22PM 33.2831 -85.7758 217° Southwest 381 438 18,000  Level Atlanta Center
01:23PM 33.1800 -85.8408 208° Southwest 396 456 18,000  Level Atlanta Center
01:24PM 33.0831 -85.9031 208° Southwest 401 461 18,000  Level Atlanta Center
01:25PM 32.9839 -85.9656 208° Southwest 401 461 18,000 -300 Level Atlanta Center
01:26PM 32.8847 -86.0275 208° Southwest 401 461 17,500 -780 Descending Atlanta Center
01:27PM 32.7817 -86.0919 208° Southwest 407 468 16,500 -1,320 Descending Atlanta Center
01:28PM 32.6825 -86.1489 206° Southwest 412 474 14,900 -1,680 Descending Atlanta Center
01:29PM 32.5861 -86.1761 193° South 388 447 13,200 -1,860 Descending Atlanta Center
01:30PM 32.5000 -86.1986 192° South 350 403 11,200 -2,160 Descending Atlanta Center
01:31PM 32.4244 -86.2214 194° South 314 361 8,900 -2,100 Descending Atlanta Center
01:32PM 32.3572 -86.2444 196° South 282 325 7,000 -1,860 Descending Atlanta Center
01:33PM 32.3089 -86.2703 204° Southwest 208 239 5,200 -2,160 Descending Atlanta Center
01:34PM 32.2994 -86.3192 257° West 174 200 2,700 -2,400 Descending Atlanta Center
01:35PM 32.2986 -86.3683 269° West 159 183 500 -2,220 Descending Atlanta Center
01:37PM 32.3000 -86.3833 209° Southwest  Level FlightAware Approximate